Time;durP1;ratioP1;P1;durP2;ratioP2;P2;SDS_P1;SDS_P2;PMS_P1;PMS_P2;Temp;Humidity;BMP_temperature;BMP_pressure;BME280_temperature;BME280_humidity;BME280_pressure;Samples;Min_cycle;Max_cycle;Signal;HPM_P1;HPM_P2
2021/09/05 00:01:52;;;;;;;16.50;8.95;;;17.60;94.10;;;;;;4950644;28;20209;-68
2021/09/05 00:04:17;;;;;;;19.27;9.18;;;17.60;94.20;;;;;;4952458;28;20197;-68
2021/09/05 00:06:43;;;;;;;18.25;9.50;;;17.50;94.30;;;;;;4952047;28;20249;-69
2021/09/05 00:09:09;;;;;;;15.55;8.80;;;17.50;94.40;;;;;;4951402;28;20655;-71
2021/09/05 00:11:34;;;;;;;16.48;9.13;;;17.50;94.50;;;;;;4950766;28;20193;-71
2021/09/05 00:14:00;;;;;;;19.35;9.50;;;17.50;94.50;;;;;;4951793;28;20233;-68
2021/09/05 00:16:26;;;;;;;15.48;8.88;;;17.40;94.60;;;;;;4952492;28;20290;-69
2021/09/05 00:18:52;;;;;;;19.65;9.57;;;17.40;95.00;;;;;;4950015;28;20636;-69
2021/09/05 00:21:17;;;;;;;17.00;9.50;;;17.40;94.70;;;;;;4951418;28;20201;-70
2021/09/05 00:23:44;;;;;;;;;;;17.30;94.80;;;;;;4948428;28;20187;-71
2021/09/05 00:26:10;;;;;;;;;;;17.30;94.90;;;;;;4950843;28;20052;-69
2021/09/05 00:28:36;;;;;;;21.25;9.95;;;17.30;95.00;;;;;;4948802;28;20482;-71
2021/09/05 00:31:02;;;;;;;19.80;10.23;;;17.20;95.10;;;;;;4951303;28;20997;-70
2021/09/05 00:33:28;;;;;;;;;;;17.20;95.10;;;;;;4950797;28;19953;-70
2021/09/05 00:35:53;;;;;;;;;;;17.20;95.20;;;;;;4950474;28;19993;-71
2021/09/05 00:38:22;;;;;;;;;;;17.20;95.30;;;;;;4948715;28;20026;-71
2021/09/05 00:40:48;;;;;;;;;;;17.20;95.40;;;;;;4951385;28;20040;-71
2021/09/05 00:43:13;;;;;;;;;;;17.10;95.40;;;;;;4950317;28;19998;-71
2021/09/05 00:45:39;;;;;;;;;;;17.20;95.50;;;;;;4952949;28;19971;-71
2021/09/05 00:48:05;;;;;;;19.25;10.57;;;17.10;95.50;;;;;;4948693;28;20751;-72
2021/09/05 00:50:31;;;;;;;27.98;10.88;;;17.10;95.60;;;;;;4949506;28;20183;-70
2021/09/05 00:52:57;;;;;;;23.08;10.50;;;17.10;95.70;;;;;;4947621;28;20594;-70
2021/09/05 00:55:24;;;;;;;21.58;11.15;;;17.00;95.70;;;;;;4950545;28;20194;-71
2021/09/05 00:57:56;;;;;;;23.45;10.60;;;17.00;95.80;;;;;;4949311;28;20249;-73
2021/09/05 01:00:25;;;;;;;18.90;10.85;;;17.00;95.90;;;;;;4956089;28;20213;-70
2021/09/05 01:02:50;;;;;;;24.20;10.93;;;17.00;95.90;;;;;;4950572;28;20208;-70
2021/09/05 01:05:16;;;;;;;19.05;10.70;;;16.90;96.00;;;;;;4949355;28;20563;-71
2021/09/05 01:07:42;;;;;;;21.40;10.88;;;16.90;96.00;;;;;;4950580;28;20265;-69
2021/09/05 01:10:12;;;;;;;18.70;10.55;;;16.90;96.10;;;;;;4950452;28;20619;-69
2021/09/05 01:12:39;;;;;;;23.25;10.63;;;16.90;96.20;;;;;;4947943;28;20194;-69
2021/09/05 01:15:06;;;;;;;22.13;11.05;;;16.80;96.30;;;;;;4949487;28;20268;-69
2021/09/05 01:17:36;;;;;;;22.70;11.10;;;16.80;96.30;;;;;;4950719;28;20186;-69
2021/09/05 01:20:20;;;;;;;22.35;10.95;;;16.80;96.30;;;;;;4948250;28;20221;-71
2021/09/05 01:23:17;;;;;;;21.67;11.15;;;16.80;96.40;;;;;;4955203;28;20301;-70
2021/09/05 01:26:07;;;;;;;21.25;11.45;;;16.70;96.40;;;;;;4944697;28;20208;-71
2021/09/05 01:29:02;;;;;;;24.83;11.15;;;16.70;96.50;;;;;;4948216;28;20240;-69
2021/09/05 01:31:56;;;;;;;22.77;11.43;;;16.60;96.50;;;;;;4934776;28;20313;-71
2021/09/05 01:34:40;;;;;;;21.98;11.20;;;16.60;96.50;;;;;;4949602;28;20241;-68
2021/09/05 01:37:24;;;;;;;17.27;10.93;;;16.60;96.60;;;;;;4954662;28;20257;-69
2021/09/05 01:40:22;;;;;;;26.45;11.70;;;16.60;96.70;;;;;;4955777;28;20249;-68
2021/09/05 01:43:24;;;;;;;19.30;10.75;;;16.50;96.70;;;;;;4904124;29;20235;-68
2021/09/05 01:46:16;;;;;;;20.95;10.93;;;16.50;96.80;;;;;;4947782;28;20671;-67
2021/09/05 01:49:00;;;;;;;20.02;11.55;;;16.50;96.80;;;;;;4948465;28;20218;-70
2021/09/05 01:51:57;;;;;;;21.50;11.15;;;16.50;96.90;;;;;;4950206;28;20210;-68
2021/09/05 01:54:53;;;;;;;24.98;11.13;;;16.40;96.90;;;;;;4947146;28;20625;-70
2021/09/05 01:57:37;;;;;;;24.00;11.13;;;16.40;97.00;;;;;;4952024;28;20193;-70
2021/09/05 02:00:23;;;;;;;23.63;12.02;;;16.40;97.00;;;;;;4948821;28;20199;-68
2021/09/05 02:02:56;;;;;;;24.90;12.57;;;16.40;97.10;;;;;;4946372;28;20233;-70
2021/09/05 02:05:45;;;;;;;21.48;11.15;;;16.40;97.10;;;;;;4953127;28;20734;-71
2021/09/05 02:08:43;;;;;;;22.67;11.80;;;16.30;97.20;;;;;;4929444;28;20213;-70
2021/09/05 02:11:27;;;;;;;22.52;10.98;;;16.30;97.20;;;;;;4949277;28;20218;-68
2021/09/05 02:14:13;;;;;;;26.17;12.57;;;16.30;97.60;;;;;;4948445;28;20230;-67
2021/09/05 02:17:00;;;;;;;22.85;11.68;;;16.20;97.30;;;;;;4946890;28;20226;-70
2021/09/05 02:19:41;;;;;;;22.17;11.30;;;16.20;97.30;;;;;;4948982;28;20651;-68
2021/09/05 02:22:25;;;;;;;24.40;11.60;;;16.20;97.40;;;;;;4952230;28;20241;-69
2021/09/05 02:25:26;;;;;;;22.35;11.20;;;16.20;97.40;;;;;;4954004;28;20586;-68
2021/09/05 02:28:12;;;;;;;22.52;11.07;;;16.10;97.50;;;;;;4951593;28;20648;-68
2021/09/05 02:30:58;;;;;;;25.15;11.80;;;16.10;97.50;;;;;;4953078;28;20285;-70
2021/09/05 02:33:44;;;;;;;23.65;11.63;;;16.10;97.60;;;;;;4944833;28;20259;-69
2021/09/05 02:36:19;;;;;;;24.50;11.60;;;16.10;97.70;;;;;;4951507;28;20182;-68
2021/09/05 02:39:05;;;;;;;21.75;11.73;;;16.00;97.70;;;;;;4942001;28;20198;-69
2021/09/05 02:41:50;;;;;;;23.73;12.52;;;16.00;97.70;;;;;;4952431;28;20221;-70
2021/09/05 02:44:34;;;;;;;23.00;11.52;;;16.00;97.80;;;;;;4952609;28;20206;-67
2021/09/05 02:47:18;;;;;;;23.55;11.88;;;16.00;97.80;;;;;;4954287;28;20193;-68
2021/09/05 02:50:05;;;;;;;28.30;13.25;;;15.90;97.90;;;;;;4923392;28;20190;-71
2021/09/05 02:52:57;;;;;;;22.38;11.95;;;15.90;97.90;;;;;;4950619;28;20194;-68
2021/09/05 02:55:42;;;;;;;27.42;13.23;;;15.90;98.00;;;;;;4950513;28;20483;-71
2021/09/05 02:58:26;;;;;;;24.33;13.10;;;15.90;98.10;;;;;;4953957;28;20206;-71
2021/09/05 03:01:02;;;;;;;23.73;13.05;;;15.90;98.10;;;;;;4950403;28;20190;-70
2021/09/05 03:04:00;;;;;;;23.13;12.63;;;15.80;98.10;;;;;;4954233;28;20187;-70
2021/09/05 03:06:50;;;;;;;26.58;12.82;;;15.80;98.20;;;;;;4950372;28;20218;-68
2021/09/05 03:09:36;;;;;;;27.55;12.60;;;15.80;98.20;;;;;;4939318;28;20603;-70
2021/09/05 03:12:23;;;;;;;26.50;13.32;;;15.80;98.30;;;;;;4949780;28;20212;-70
2021/09/05 03:15:08;;;;;;;24.80;12.88;;;15.70;98.40;;;;;;4952550;28;20672;-70
2021/09/05 03:17:53;;;;;;;25.27;12.57;;;15.70;98.40;;;;;;4951933;28;20220;-69
2021/09/05 03:20:39;;;;;;;23.23;13.38;;;15.70;98.50;;;;;;4951902;28;20726;-67
2021/09/05 03:23:37;;;;;;;29.83;13.18;;;15.70;98.60;;;;;;4950440;28;20970;-68
2021/09/05 03:26:21;;;;;;;26.33;12.63;;;15.60;98.50;;;;;;4950160;28;20197;-67
2021/09/05 03:29:10;;;;;;;25.98;12.57;;;15.60;98.60;;;;;;4950213;28;20257;-67
2021/09/05 03:31:54;;;;;;;26.98;13.10;;;15.60;98.60;;;;;;4952642;28;20201;-69
2021/09/05 03:34:40;;;;;;;28.92;13.52;;;15.60;98.70;;;;;;4929659;28;20210;-69
2021/09/05 03:37:24;;;;;;;26.92;12.98;;;15.60;98.90;;;;;;4951975;28;20209;-69
2021/09/05 03:40:09;;;;;;;27.40;13.45;;;15.60;98.90;;;;;;4954238;28;20256;-70
2021/09/05 03:43:03;;;;;;;27.42;13.60;;;15.50;98.90;;;;;;4939376;28;20774;-68
2021/09/05 03:45:46;;;;;;;25.10;13.18;;;15.50;99.00;;;;;;4952178;28;20307;-69
2021/09/05 03:48:37;;;;;;;27.40;14.00;;;15.50;99.40;;;;;;4956457;28;20206;-68
2021/09/05 03:51:07;;;;;;;21.50;12.95;;;15.40;99.10;;;;;;4949717;28;20183;-69
2021/09/05 03:53:36;;;;;;;26.63;12.88;;;15.40;99.20;;;;;;4950823;28;20187;-69
2021/09/05 03:56:03;;;;;;;27.52;13.38;;;15.40;99.30;;;;;;4951204;28;20234;-69
2021/09/05 03:58:32;;;;;;;24.98;13.45;;;15.40;99.30;;;;;;4949612;28;20182;-68
2021/09/05 04:00:58;;;;;;;32.50;13.90;;;15.40;99.40;;;;;;4951960;28;20294;-68
2021/09/05 04:03:24;;;;;;;28.55;13.48;;;15.40;99.50;;;;;;4950929;28;20207;-70
2021/09/05 04:05:51;;;;;;;30.90;14.05;;;15.40;99.60;;;;;;4950250;28;20175;-69
2021/09/05 04:08:17;;;;;;;31.73;14.63;;;15.40;99.70;;;;;;4952354;28;20308;-69
2021/09/05 04:10:43;;;;;;;23.85;14.02;;;15.30;99.80;;;;;;4951782;28;20186;-69
2021/09/05 04:13:11;;;;;;;22.40;13.63;;;15.30;99.80;;;;;;4951203;28;20253;-69
2021/09/05 04:15:38;;;;;;;28.17;14.52;;;15.30;99.90;;;;;;4950705;28;20312;-69
2021/09/05 04:18:04;;;;;;;27.48;14.55;;;15.30;99.90;;;;;;4950736;28;20201;-69
2021/09/05 04:20:29;;;;;;;28.95;15.00;;;15.30;99.90;;;;;;4950550;28;20202;-68
2021/09/05 04:22:55;;;;;;;35.30;15.57;;;15.30;99.90;;;;;;4949726;28;22240;-69
2021/09/05 04:25:21;;;;;;;32.58;16.02;;;15.30;99.90;;;;;;4951223;28;20205;-70
2021/09/05 04:27:46;;;;;;;29.77;16.17;;;15.30;99.90;;;;;;4951385;28;20659;-70
2021/09/05 04:30:12;;;;;;;26.88;15.68;;;15.20;99.90;;;;;;4949843;28;20195;-67
2021/09/05 04:32:39;;;;;;;33.03;16.02;;;15.20;99.90;;;;;;4951419;28;20197;-70
2021/09/05 04:35:06;;;;;;;27.42;15.88;;;15.20;99.90;;;;;;4951316;28;20668;-70
2021/09/05 04:37:32;;;;;;;28.67;15.90;;;15.20;99.90;;;;;;4949473;28;20667;-71
2021/09/05 04:39:58;;;;;;;28.17;15.38;;;15.20;99.90;;;;;;4950021;28;20204;-69
2021/09/05 04:42:24;;;;;;;35.95;16.52;;;15.20;99.90;;;;;;4951517;28;20210;-70
2021/09/05 04:44:52;;;;;;;34.50;17.10;;;15.20;99.90;;;;;;4950246;28;20195;-71
2021/09/05 04:47:19;;;;;;;29.85;15.98;;;15.20;99.90;;;;;;4952526;28;20954;-69
2021/09/05 04:49:45;;;;;;;33.70;17.55;;;15.20;99.90;;;;;;4955260;28;20637;-69
2021/09/05 04:52:11;;;;;;;31.40;16.33;;;15.20;99.90;;;;;;4950466;28;20253;-70
2021/09/05 04:54:36;;;;;;;31.35;16.42;;;15.10;99.90;;;;;;4952482;28;20244;-69
2021/09/05 04:57:02;;;;;;;31.17;15.75;;;15.10;99.90;;;;;;4950807;28;20194;-71
2021/09/05 04:59:28;;;;;;;31.65;15.73;;;15.10;99.90;;;;;;4952994;28;20218;-70
2021/09/05 05:01:54;;;;;;;32.92;16.67;;;15.10;99.90;;;;;;4950784;28;20209;-71
2021/09/05 05:04:19;;;;;;;38.97;16.13;;;15.10;99.90;;;;;;4952442;28;20268;-72
2021/09/05 05:06:45;;;;;;;39.25;19.27;;;15.10;99.90;;;;;;4947990;28;20650;-69
2021/09/05 05:09:12;;;;;;;30.92;16.17;;;15.10;99.90;;;;;;4950028;28;20178;-69
2021/09/05 05:11:42;;;;;;;31.95;16.02;;;15.10;99.90;;;;;;4949345;28;20565;-70
2021/09/05 05:14:08;;;;;;;29.40;17.33;;;15.00;99.90;;;;;;4950622;28;20587;-69
2021/09/05 05:16:34;;;;;;;35.83;16.67;;;15.00;99.90;;;;;;4951895;28;20191;-70
2021/09/05 05:19:01;;;;;;;31.55;17.27;;;15.00;99.90;;;;;;4948715;28;20202;-70
2021/09/05 05:21:27;;;;;;;27.58;15.88;;;15.00;99.90;;;;;;4951740;28;20305;-70
2021/09/05 05:23:57;;;;;;;29.10;16.35;;;15.00;99.90;;;;;;4952072;28;20201;-70
2021/09/05 05:26:24;;;;;;;29.13;16.75;;;15.00;99.90;;;;;;4949872;28;21057;-69
2021/09/05 05:28:50;;;;;;;35.47;17.35;;;15.10;99.90;;;;;;4951605;28;20265;-70
2021/09/05 05:31:16;;;;;;;32.65;16.42;;;15.00;99.90;;;;;;4950439;28;20313;-69
2021/09/05 05:33:42;;;;;;;32.22;17.00;;;15.00;99.90;;;;;;4948971;28;20186;-69
2021/09/05 05:36:08;;;;;;;31.05;17.20;;;15.00;99.90;;;;;;4950884;28;20237;-69
2021/09/05 05:38:33;;;;;;;35.17;17.13;;;15.10;99.90;;;;;;4950362;28;20272;-70
2021/09/05 05:40:59;;;;;;;31.95;17.08;;;15.10;99.90;;;;;;4950621;28;20546;-70
2021/09/05 05:43:24;;;;;;;34.00;17.95;;;15.10;99.90;;;;;;4948157;28;20207;-71
2021/09/05 05:45:50;;;;;;;32.25;16.83;;;15.10;99.90;;;;;;4947602;28;20552;-70
2021/09/05 05:48:16;;;;;;;35.47;18.08;;;15.10;99.90;;;;;;4954407;28;20671;-68
2021/09/05 05:50:42;;;;;;;32.67;16.33;;;15.10;99.90;;;;;;4954537;28;20269;-67
2021/09/05 05:53:08;;;;;;;35.63;16.90;;;15.10;99.90;;;;;;4949167;28;20206;-70
2021/09/05 05:55:34;;;;;;;30.23;15.05;;;15.20;99.90;;;;;;4948623;28;20217;-68
2021/09/05 05:58:00;;;;;;;28.58;15.45;;;15.30;99.90;;;;;;4959159;28;20182;-68
2021/09/05 06:00:26;;;;;;;31.20;15.40;;;15.30;99.90;;;;;;4956483;28;20194;-67
2021/09/05 06:02:53;;;;;;;27.65;15.48;;;15.30;99.90;;;;;;4961921;28;20293;-68
2021/09/05 06:05:20;;;;;;;27.17;15.25;;;15.40;99.90;;;;;;4961336;28;20566;-69
2021/09/05 06:07:46;;;;;;;30.10;15.23;;;15.40;99.90;;;;;;4954455;28;20185;-67
2021/09/05 06:10:12;;;;;;;31.95;15.02;;;15.50;99.90;;;;;;4955331;28;20561;-68
2021/09/05 06:12:38;;;;;;;28.90;15.07;;;15.50;99.90;;;;;;4954297;28;20195;-67
2021/09/05 06:15:04;;;;;;;31.42;15.48;;;15.50;99.90;;;;;;4959956;28;20226;-64
2021/09/05 06:17:30;;;;;;;29.95;15.43;;;15.50;99.90;;;;;;4954599;28;20201;-69
2021/09/05 06:19:55;;;;;;;30.08;15.32;;;15.50;99.90;;;;;;4953215;28;20659;-70
2021/09/05 06:22:21;;;;;;;27.83;14.35;;;15.50;99.90;;;;;;4951202;28;20679;-69
2021/09/05 06:24:47;;;;;;;27.55;15.45;;;15.50;99.90;;;;;;4952509;28;20193;-69
2021/09/05 06:27:12;;;;;;;26.33;14.57;;;15.60;99.90;;;;;;4952763;28;20193;-70
2021/09/05 06:29:38;;;;;;;31.25;14.32;;;15.60;99.90;;;;;;4950748;28;20179;-69
2021/09/05 06:32:04;;;;;;;26.10;12.77;;;15.60;99.90;;;;;;4952585;28;20194;-69
2021/09/05 06:34:30;;;;;;;28.20;14.82;;;15.70;99.90;;;;;;4953790;28;20262;-70
2021/09/05 06:36:55;;;;;;;25.63;14.38;;;15.70;99.90;;;;;;4954911;28;20243;-69
2021/09/05 06:39:21;;;;;;;28.27;14.30;;;15.80;99.90;;;;;;4953502;28;20193;-69
2021/09/05 06:41:47;;;;;;;29.77;13.82;;;15.80;99.90;;;;;;4960117;28;20186;-70
2021/09/05 06:44:12;;;;;;;26.10;13.95;;;15.90;99.90;;;;;;4953682;28;20296;-69
2021/09/05 06:46:38;;;;;;;31.77;15.07;;;15.90;99.90;;;;;;4953193;28;20190;-69
2021/09/05 06:49:04;;;;;;;23.52;12.93;;;15.90;99.90;;;;;;4951457;28;20659;-69
2021/09/05 06:51:29;;;;;;;25.27;13.15;;;16.00;99.90;;;;;;4952394;28;20189;-69
2021/09/05 06:53:55;;;;;;;21.10;11.40;;;16.00;99.90;;;;;;4955621;28;20187;-69
2021/09/05 06:56:21;;;;;;;30.25;13.43;;;16.00;99.90;;;;;;4954973;28;20198;-70
2021/09/05 06:58:46;;;;;;;22.77;12.32;;;16.00;99.90;;;;;;4954232;28;20630;-70
2021/09/05 07:01:12;;;;;;;30.63;13.85;;;16.10;99.90;;;;;;4953907;28;20587;-70
2021/09/05 07:03:38;;;;;;;25.85;13.50;;;16.10;99.90;;;;;;4954605;28;20209;-70
2021/09/05 07:06:05;;;;;;;27.27;13.38;;;16.20;99.90;;;;;;4949723;28;20282;-70
2021/09/05 07:08:30;;;;;;;29.17;13.20;;;16.20;99.90;;;;;;4950686;28;21004;-70
2021/09/05 07:10:56;;;;;;;21.95;13.90;;;16.30;99.90;;;;;;4953890;28;20203;-70
2021/09/05 07:13:21;;;;;;;22.40;13.13;;;16.30;99.90;;;;;;4951479;28;20619;-70
2021/09/05 07:15:47;;;;;;;23.10;11.95;;;16.30;99.90;;;;;;4955016;28;20711;-70
2021/09/05 07:18:13;;;;;;;23.25;11.20;;;16.40;99.90;;;;;;4953768;28;20261;-70
2021/09/05 07:20:38;;;;;;;22.65;13.60;;;16.40;99.90;;;;;;4952179;28;20206;-70
2021/09/05 07:23:04;;;;;;;26.38;13.73;;;16.50;99.90;;;;;;4953752;28;20676;-71
2021/09/05 07:25:30;;;;;;;22.48;12.50;;;16.50;99.90;;;;;;4949707;28;20190;-70
2021/09/05 07:27:56;;;;;;;25.60;13.48;;;16.50;99.90;;;;;;4954686;28;20265;-70
2021/09/05 07:30:21;;;;;;;24.63;12.57;;;16.60;99.90;;;;;;4952377;28;20206;-68
2021/09/05 07:32:47;;;;;;;26.13;13.07;;;16.60;99.90;;;;;;4954140;28;20583;-69
2021/09/05 07:35:13;;;;;;;24.83;12.75;;;16.70;99.90;;;;;;4953607;28;20959;-68
2021/09/05 07:37:39;;;;;;;29.35;16.25;;;16.80;99.90;;;;;;4952054;28;20213;-68
2021/09/05 07:40:05;;;;;;;29.92;15.30;;;16.80;99.90;;;;;;4954140;28;20194;-68
2021/09/05 07:42:32;;;;;;;22.80;12.60;;;16.80;99.90;;;;;;4952402;28;20214;-68
2021/09/05 07:44:58;;;;;;;30.48;15.07;;;16.90;99.90;;;;;;4951757;28;20241;-71
2021/09/05 07:47:24;;;;;;;35.10;16.63;;;17.00;99.90;;;;;;4956511;28;20246;-72
2021/09/05 07:49:50;;;;;;;26.17;13.43;;;17.00;99.90;;;;;;4952734;28;20611;-74
2021/09/05 07:52:16;;;;;;;29.50;15.82;;;17.10;99.90;;;;;;4955520;28;20281;-71
2021/09/05 07:54:41;;;;;;;23.88;13.73;;;17.10;99.90;;;;;;4955129;28;20267;-71
2021/09/05 07:57:07;;;;;;;27.50;15.90;;;17.20;99.90;;;;;;4956682;28;20630;-70
2021/09/05 07:59:33;;;;;;;25.88;14.38;;;17.30;99.90;;;;;;4950623;28;20277;-72
2021/09/05 08:01:58;;;;;;;24.15;13.98;;;17.30;99.90;;;;;;4951688;28;20265;-72
2021/09/05 08:04:24;;;;;;;28.58;15.60;;;17.40;99.90;;;;;;4952756;28;20191;-72
2021/09/05 08:06:49;;;;;;;27.88;15.45;;;17.50;99.90;;;;;;4961487;28;20193;-72
2021/09/05 08:09:15;;;;;;;28.75;13.90;;;17.50;99.90;;;;;;4955668;28;20190;-72
2021/09/05 08:11:41;;;;;;;26.38;12.98;;;17.60;99.90;;;;;;4958576;28;20198;-71
2021/09/05 08:14:06;;;;;;;24.70;13.38;;;17.70;99.90;;;;;;4947666;28;20237;-72
2021/09/05 08:16:33;;;;;;;20.17;10.30;;;17.80;99.60;;;;;;4955894;28;20223;-72
2021/09/05 08:18:59;;;;;;;19.58;11.25;;;17.90;99.30;;;;;;4958015;28;20490;-72
2021/09/05 08:21:24;;;;;;;23.58;11.52;;;18.00;98.90;;;;;;4955415;28;20201;-72
2021/09/05 08:23:50;;;;;;;26.15;9.70;;;18.10;98.60;;;;;;4958746;28;20221;-71
2021/09/05 08:26:16;;;;;;;20.40;10.15;;;18.20;98.30;;;;;;4963043;28;20198;-73
2021/09/05 08:28:42;;;;;;;18.60;9.15;;;18.30;98.00;;;;;;4955735;28;20205;-72
2021/09/05 08:31:08;;;;;;;19.30;9.68;;;18.40;97.50;;;;;;4953193;28;20218;-72
2021/09/05 08:33:34;;;;;;;19.77;10.15;;;18.50;97.20;;;;;;4949872;28;20201;-72
2021/09/05 08:35:59;;;;;;;22.25;10.23;;;18.60;96.90;;;;;;4954339;28;20207;-72
2021/09/05 08:38:25;;;;;;;20.10;9.77;;;18.70;96.60;;;;;;4949823;28;20182;-70
2021/09/05 08:40:52;;;;;;;16.67;9.13;;;19.00;96.30;;;;;;4957757;28;20161;-70
2021/09/05 08:43:20;;;;;;;16.55;8.45;;;19.10;96.10;;;;;;4950795;28;20199;-71
2021/09/05 08:45:46;;;;;;;;;;;19.40;96.30;;;;;;4954072;28;20091;-70
2021/09/05 08:48:15;;;;;;;17.60;8.70;;;19.70;96.30;;;;;;4937016;28;20370;-72
2021/09/05 08:50:42;;;;;;;18.42;8.10;;;20.10;95.90;;;;;;4950439;28;20711;-69
2021/09/05 08:53:08;;;;;;;13.00;7.65;;;20.50;95.20;;;;;;4952137;28;20035;-68
2021/09/05 08:55:34;;;;;;;;;;;21.00;94.20;;;;;;4952272;28;20202;-68
2021/09/05 08:57:59;;;;;;;14.38;7.93;;;21.40;93.10;;;;;;4949451;28;20394;-70
2021/09/05 09:00:25;;;;;;;;;;;21.90;91.80;;;;;;4954925;28;20122;-71
2021/09/05 09:02:53;;;;;;;;;;;22.30;90.50;;;;;;4954687;28;19953;-70
2021/09/05 09:05:38;;;;;;;;;;;22.50;88.30;;;;;;4950467;28;19914;-71
2021/09/05 09:08:04;;;;;;;;;;;22.80;86.10;;;;;;4952144;28;19918;-72
2021/09/05 09:10:30;;;;;;;;;;;23.00;84.10;;;;;;4950224;28;19913;-71
2021/09/05 09:12:55;;;;;;;;;;;23.10;82.40;;;;;;4951443;28;19914;-72
2021/09/05 09:15:29;;;;;;;;;;;23.30;80.90;;;;;;4956250;28;19922;-71
2021/09/05 09:17:58;;;;;;;12.55;7.30;;;23.40;79.00;;;;;;4946972;28;20663;-72
2021/09/05 09:20:41;;;;;;;14.52;7.13;;;23.50;77.50;;;;;;4957508;28;20967;-71
2021/09/05 09:23:19;;;;;;;13.43;7.50;;;23.60;76.40;;;;;;4948847;28;20214;-73
2021/09/05 09:25:55;;;;;;;14.82;7.50;;;23.70;75.10;;;;;;4950616;28;20193;-72
2021/09/05 09:28:34;;;;;;;18.90;7.10;;;23.80;74.20;;;;;;4948919;28;20190;-71
2021/09/05 09:31:24;;;;;;;15.60;7.93;;;23.90;73.20;;;;;;4957304;28;20194;-73
2021/09/05 09:33:52;;;;;;;14.07;7.50;;;24.00;72.60;;;;;;4941683;28;20214;-71
2021/09/05 09:36:19;;;;;;;;;;;24.20;72.30;;;;;;4952804;28;20197;-72
2021/09/05 09:38:57;;;;;;;14.88;7.70;;;24.40;72.10;;;;;;4957311;28;20483;-73
2021/09/05 09:41:31;;;;;;;14.20;7.07;;;24.60;71.40;;;;;;4949352;28;20659;-73
2021/09/05 09:43:57;;;;;;;;;;;24.90;70.60;;;;;;4951828;28;20055;-74
2021/09/05 09:46:26;;;;;;;9.85;6.10;;;25.40;68.80;;;;;;4950322;28;20010;-77
2021/09/05 09:48:55;;;;;;;;;;;26.10;66.10;;;;;;4949127;28;20027;-75
2021/09/05 09:51:22;;;;;;;13.50;6.60;;;26.70;63.50;;;;;;4951708;28;20170;-74
2021/09/05 09:53:49;;;;;;;9.80;6.55;;;27.40;60.60;;;;;;4951240;28;20545;-73
2021/09/05 09:56:20;;;;;;;10.15;5.63;;;28.10;57.80;;;;;;4953474;28;20198;-77
2021/09/05 09:58:47;;;;;;;11.07;6.10;;;28.70;55.30;;;;;;4952505;28;20281;-74
2021/09/05 10:01:14;;;;;;;;;;;29.30;53.20;;;;;;4931030;29;20187;-71
2021/09/05 10:03:40;;;;;;;;;;;29.90;51.60;;;;;;4949980;28;19993;-70
2021/09/05 10:06:06;;;;;;;9.65;6.20;;;30.40;50.50;;;;;;4960891;28;20439;-75
2021/09/05 10:08:33;;;;;;;9.50;5.40;;;30.90;48.30;;;;;;4950616;28;20207;-73
2021/09/05 10:10:59;;;;;;;9.27;5.65;;;31.40;46.70;;;;;;4962168;28;20205;-74
2021/09/05 10:13:29;;;;;;;13.02;5.78;;;31.90;45.30;;;;;;4949428;28;20181;-74
2021/09/05 10:15:56;;;;;;;8.45;5.53;;;32.20;44.00;;;;;;4945712;28;20238;-74
2021/09/05 10:18:22;;;;;;;10.43;6.07;;;32.70;42.90;;;;;;4947860;28;20217;-69
2021/09/05 10:20:48;;;;;;;9.18;5.47;;;33.10;41.80;;;;;;4951439;28;20197;-70
2021/09/05 10:23:21;;;;;;;9.88;6.00;;;33.50;40.90;;;;;;4959938;28;20221;-74
2021/09/05 10:25:54;;;;;;;8.60;5.88;;;33.90;40.20;;;;;;4948493;28;20538;-72
2021/09/05 10:28:39;;;;;;;9.25;6.18;;;34.10;39.50;;;;;;4947610;28;20182;-68
2021/09/05 10:31:06;;;;;;;9.73;6.43;;;34.40;38.60;;;;;;4949371;28;20193;-69
2021/09/05 10:33:40;;;;;;;11.27;5.82;;;34.90;37.90;;;;;;4950852;28;20175;-70
2021/09/05 10:36:14;;;;;;;8.75;5.72;;;35.30;36.80;;;;;;4954198;28;20190;-67
2021/09/05 10:38:42;;;;;;;10.90;6.07;;;35.90;36.00;;;;;;4947497;28;20174;-70
2021/09/05 10:41:23;;;;;;;12.60;6.20;;;36.40;35.40;;;;;;4952290;28;20190;-71
2021/09/05 10:43:53;;;;;;;;;;;37.00;34.40;;;;;;4953025;28;20231;-71
2021/09/05 10:46:21;;;;;;;12.05;5.80;;;37.40;33.60;;;;;;4958081;28;20048;-69
2021/09/05 10:48:52;;;;;;;9.35;5.78;;;37.80;32.90;;;;;;4959955;28;20546;-71
2021/09/05 10:51:27;;;;;;;9.70;6.30;;;38.30;32.30;;;;;;4967947;28;20190;-68
2021/09/05 10:54:28;;;;;;;10.35;5.13;;;38.60;31.30;;;;;;4952594;28;20182;-68
2021/09/05 10:56:56;;;;;;;9.65;6.03;;;39.00;31.30;;;;;;4951991;28;20194;-71
2021/09/05 10:59:23;;;;;;;10.20;5.00;;;39.30;30.50;;;;;;4959182;28;20545;-76
2021/09/05 11:01:48;;;;;;;7.47;5.43;;;39.60;30.30;;;;;;4952491;28;20975;-70
2021/09/05 11:04:14;;;;;;;9.13;5.63;;;40.00;30.20;;;;;;4957494;28;20264;-70
2021/09/05 11:06:42;;;;;;;11.13;5.55;;;40.20;29.70;;;;;;4957172;28;20197;-70
2021/09/05 11:09:23;;;;;;;10.60;5.75;;;40.40;29.40;;;;;;4953965;28;20670;-68
2021/09/05 11:11:58;;;;;;;11.57;5.65;;;40.50;28.80;;;;;;4957945;28;20185;-71
2021/09/05 11:14:49;;;;;;;8.57;5.65;;;40.60;28.60;;;;;;4952754;28;20233;-68
2021/09/05 11:17:19;;;;;;;9.15;4.95;;;40.80;28.70;;;;;;4950284;28;21063;-71
2021/09/05 11:19:49;;;;;;;9.68;5.88;;;40.90;28.80;;;;;;4953704;28;20716;-71
2021/09/05 11:22:23;;;;;;;9.25;5.55;;;41.20;28.50;;;;;;4953333;28;20202;-70
2021/09/05 11:25:07;;;;;;;8.90;5.88;;;41.20;28.10;;;;;;4952086;28;20303;-72
2021/09/05 11:27:33;;;;;;;10.55;6.00;;;41.30;28.10;;;;;;4955024;28;20178;-68
2021/09/05 11:30:06;;;;;;;9.80;5.70;;;41.30;27.80;;;;;;4955422;28;20209;-70
2021/09/05 11:32:32;;;;;;;7.07;4.88;;;41.30;27.70;;;;;;4955017;28;20208;-71
2021/09/05 11:35:00;;;;;;;12.98;5.38;;;41.40;27.80;;;;;;4955367;28;20671;-67
2021/09/05 11:37:28;;;;;;;9.57;5.88;;;41.40;27.60;;;;;;4955471;28;20563;-68
2021/09/05 11:39:56;;;;;;;8.05;5.30;;;41.50;27.30;;;;;;4959841;28;20182;-68
2021/09/05 11:42:24;;;;;;;7.32;4.05;;;41.60;28.00;;;;;;4957737;28;20321;-72
2021/09/05 11:45:00;;;;;;;8.23;4.50;;;41.60;27.80;;;;;;4956018;28;20186;-73
2021/09/05 11:47:26;;;;;;;8.93;4.70;;;41.50;27.60;;;;;;4952726;28;20338;-70
2021/09/05 11:49:54;;;;;;;8.80;4.90;;;41.80;27.40;;;;;;4955816;28;20713;-73
2021/09/05 11:52:26;;;;;;;6.68;3.97;;;42.00;27.70;;;;;;4953698;28;20354;-72
2021/09/05 11:55:02;;;;;;;7.90;5.00;;;42.10;27.30;;;;;;4955356;28;20182;-72
2021/09/05 11:57:29;;;;;;;11.63;4.43;;;42.20;27.10;;;;;;4950338;28;20193;-72
2021/09/05 11:59:57;;;;;;;10.52;4.63;;;42.40;27.10;;;;;;4950909;28;20237;-74
2021/09/05 12:02:41;;;;;;;9.02;4.38;;;42.50;26.50;;;;;;4954715;28;20219;-70
2021/09/05 12:05:10;;;;;;;7.25;4.57;;;42.50;26.70;;;;;;4951662;28;20269;-75
2021/09/05 12:07:38;;;;;;;7.70;4.82;;;42.60;26.60;;;;;;4951760;28;20497;-67
2021/09/05 12:10:15;;;;;;;9.68;4.78;;;42.70;26.40;;;;;;4951826;28;20194;-73
2021/09/05 12:12:58;;;;;;;7.43;4.78;;;42.70;26.20;;;;;;4951638;28;20204;-73
2021/09/05 12:15:24;;;;;;;6.80;4.82;;;42.60;26.20;;;;;;4971938;28;20228;-75
2021/09/05 12:17:51;;;;;;;9.43;5.00;;;42.70;26.10;;;;;;4953808;28;20186;-77
2021/09/05 12:20:21;;;;;;;8.13;5.18;;;42.60;25.90;;;;;;4958671;28;20262;-73
2021/09/05 12:22:53;;;;;;;7.13;4.55;;;42.60;25.80;;;;;;4953739;28;20178;-71
2021/09/05 12:25:22;;;;;;;8.80;4.85;;;42.50;26.00;;;;;;4951255;28;20186;-74
2021/09/05 12:28:03;;;;;;;9.43;4.93;;;42.40;26.10;;;;;;4957214;28;20217;-72
2021/09/05 12:30:33;;;;;;;7.10;4.80;;;42.20;26.30;;;;;;4952103;28;20624;-71
2021/09/05 12:33:11;;;;;;;9.18;4.93;;;42.00;26.30;;;;;;4950549;28;20228;-72
2021/09/05 12:35:39;;;;;;;9.38;4.50;;;41.90;26.30;;;;;;4955477;28;20186;-73
2021/09/05 12:38:14;;;;;;;7.47;4.70;;;41.90;26.50;;;;;;4954721;28;20186;-69
2021/09/05 12:40:43;;;;;;;9.20;5.10;;;41.80;26.40;;;;;;4955346;28;20185;-77
2021/09/05 12:43:11;;;;;;;9.88;5.47;;;41.70;26.40;;;;;;4956098;28;20240;-72
2021/09/05 12:45:48;;;;;;;7.63;4.97;;;41.70;26.60;;;;;;4956564;28;20261;-71
2021/09/05 12:48:20;;;;;;;9.60;5.32;;;41.60;26.60;;;;;;4955463;28;20185;-73
2021/09/05 12:51:01;;;;;;;9.82;5.50;;;41.40;26.40;;;;;;4950160;28;20233;-73
2021/09/05 12:53:27;;;;;;;8.15;5.07;;;41.30;26.60;;;;;;4956906;28;20248;-76
2021/09/05 12:55:53;;;;;;;8.38;4.68;;;41.30;26.70;;;;;;4956611;28;20192;-72
2021/09/05 12:58:18;;;;;;;9.23;5.20;;;41.20;26.90;;;;;;4957051;28;20186;-74
2021/09/05 13:00:44;;;;;;;9.48;5.45;;;41.10;27.00;;;;;;4952828;28;20202;-73
2021/09/05 13:03:10;;;;;;;9.70;5.40;;;41.00;26.90;;;;;;4951265;28;20238;-74